sensor_id;sensor_type;location;lat;lon;timestamp;P1;durP1;ratioP1;P2;durP2;ratioP2
3541;SDS011;1785;47.388;8.538;2023-08-06T00:00:00;3.03;;;2.80;;
3541;SDS011;1785;47.388;8.538;2023-08-06T00:02:27;4.80;;;3.20;;
3541;SDS011;1785;47.388;8.538;2023-08-06T00:04:53;3.33;;;3.03;;
3541;SDS011;1785;47.388;8.538;2023-08-06T00:07:19;3.20;;;3.00;;
3541;SDS011;1785;47.388;8.538;2023-08-06T00:09:46;2.85;;;2.45;;
3541;SDS011;1785;47.388;8.538;2023-08-06T00:12:12;3.73;;;3.43;;
3541;SDS011;1785;47.388;8.538;2023-08-06T00:14:38;3.33;;;3.10;;
3541;SDS011;1785;47.388;8.538;2023-08-06T00:17:04;3.87;;;3.00;;
3541;SDS011;1785;47.388;8.538;2023-08-06T00:19:30;2.97;;;2.77;;
3541;SDS011;1785;47.388;8.538;2023-08-06T00:21:56;3.43;;;3.03;;
3541;SDS011;1785;47.388;8.538;2023-08-06T00:24:22;3.30;;;3.10;;
3541;SDS011;1785;47.388;8.538;2023-08-06T00:26:49;3.73;;;3.20;;
3541;SDS011;1785;47.388;8.538;2023-08-06T00:29:15;2.57;;;2.47;;
3541;SDS011;1785;47.388;8.538;2023-08-06T00:31:41;4.10;;;2.53;;
3541;SDS011;1785;47.388;8.538;2023-08-06T00:34:07;3.70;;;3.40;;
3541;SDS011;1785;47.388;8.538;2023-08-06T00:36:33;2.50;;;2.30;;
3541;SDS011;1785;47.388;8.538;2023-08-06T00:38:59;4.00;;;3.60;;
3541;SDS011;1785;47.388;8.538;2023-08-06T00:41:25;3.50;;;2.70;;
3541;SDS011;1785;47.388;8.538;2023-08-06T00:43:52;2.90;;;2.50;;
3541;SDS011;1785;47.388;8.538;2023-08-06T00:46:18;2.43;;;2.23;;
3541;SDS011;1785;47.388;8.538;2023-08-06T00:48:44;2.40;;;2.20;;
3541;SDS011;1785;47.388;8.538;2023-08-06T00:51:10;3.67;;;2.20;;
3541;SDS011;1785;47.388;8.538;2023-08-06T00:53:41;3.00;;;2.80;;
3541;SDS011;1785;47.388;8.538;2023-08-06T00:56:07;3.83;;;2.97;;
3541;SDS011;1785;47.388;8.538;2023-08-06T00:58:35;3.00;;;2.70;;
3541;SDS011;1785;47.388;8.538;2023-08-06T01:01:02;2.57;;;2.37;;
3541;SDS011;1785;47.388;8.538;2023-08-06T01:03:28;4.20;;;2.60;;
3541;SDS011;1785;47.388;8.538;2023-08-06T01:05:54;2.30;;;2.10;;
3541;SDS011;1785;47.388;8.538;2023-08-06T01:08:25;2.67;;;2.43;;
3541;SDS011;1785;47.388;8.538;2023-08-06T01:11:02;2.53;;;2.20;;
3541;SDS011;1785;47.388;8.538;2023-08-06T01:13:37;2.97;;;2.20;;
3541;SDS011;1785;47.388;8.538;2023-08-06T01:16:09;2.27;;;2.07;;
3541;SDS011;1785;47.388;8.538;2023-08-06T01:18:35;2.57;;;2.20;;
3541;SDS011;1785;47.388;8.538;2023-08-06T01:21:04;2.70;;;2.50;;
3541;SDS011;1785;47.388;8.538;2023-08-06T01:23:30;1.90;;;1.80;;
3541;SDS011;1785;47.388;8.538;2023-08-06T01:25:59;3.20;;;2.40;;
3541;SDS011;1785;47.388;8.538;2023-08-06T01:28:37;2.60;;;2.00;;
3541;SDS011;1785;47.388;8.538;2023-08-06T01:31:14;2.00;;;1.80;;
3541;SDS011;1785;47.388;8.538;2023-08-06T01:33:44;3.00;;;2.10;;
3541;SDS011;1785;47.388;8.538;2023-08-06T01:36:13;3.00;;;2.80;;
3541;SDS011;1785;47.388;8.538;2023-08-06T01:38:41;2.40;;;2.20;;
3541;SDS011;1785;47.388;8.538;2023-08-06T01:41:07;2.23;;;2.03;;
3541;SDS011;1785;47.388;8.538;2023-08-06T01:43:33;2.43;;;2.23;;
3541;SDS011;1785;47.388;8.538;2023-08-06T01:45:59;2.30;;;1.83;;
3541;SDS011;1785;47.388;8.538;2023-08-06T01:48:26;2.83;;;2.13;;
3541;SDS011;1785;47.388;8.538;2023-08-06T01:50:52;2.23;;;2.03;;
3541;SDS011;1785;47.388;8.538;2023-08-06T01:53:18;2.20;;;2.10;;
3541;SDS011;1785;47.388;8.538;2023-08-06T01:55:47;2.63;;;2.40;;
3541;SDS011;1785;47.388;8.538;2023-08-06T01:58:13;1.90;;;1.80;;
3541;SDS011;1785;47.388;8.538;2023-08-06T02:00:40;2.40;;;2.23;;
3541;SDS011;1785;47.388;8.538;2023-08-06T02:03:06;2.47;;;2.10;;
3541;SDS011;1785;47.388;8.538;2023-08-06T02:05:32;1.73;;;1.53;;
3541;SDS011;1785;47.388;8.538;2023-08-06T02:07:58;1.70;;;1.60;;
3541;SDS011;1785;47.388;8.538;2023-08-06T02:10:24;3.13;;;1.97;;
3541;SDS011;1785;47.388;8.538;2023-08-06T02:12:50;3.17;;;2.27;;
3541;SDS011;1785;47.388;8.538;2023-08-06T02:15:16;2.37;;;2.00;;
3541;SDS011;1785;47.388;8.538;2023-08-06T02:17:42;2.33;;;1.73;;
3541;SDS011;1785;47.388;8.538;2023-08-06T02:20:09;2.43;;;1.90;;
3541;SDS011;1785;47.388;8.538;2023-08-06T02:22:35;1.50;;;1.40;;
3541;SDS011;1785;47.388;8.538;2023-08-06T02:25:01;1.97;;;1.70;;
3541;SDS011;1785;47.388;8.538;2023-08-06T02:27:28;2.47;;;1.63;;
3541;SDS011;1785;47.388;8.538;2023-08-06T02:29:54;2.10;;;2.00;;
3541;SDS011;1785;47.388;8.538;2023-08-06T02:32:20;2.00;;;1.70;;
3541;SDS011;1785;47.388;8.538;2023-08-06T02:34:46;2.07;;;1.63;;
3541;SDS011;1785;47.388;8.538;2023-08-06T02:37:12;1.83;;;1.53;;
3541;SDS011;1785;47.388;8.538;2023-08-06T02:39:38;2.20;;;1.90;;
3541;SDS011;1785;47.388;8.538;2023-08-06T02:42:05;1.77;;;1.67;;
3541;SDS011;1785;47.388;8.538;2023-08-06T02:44:32;1.93;;;1.70;;
3541;SDS011;1785;47.388;8.538;2023-08-06T02:46:59;1.93;;;1.40;;
3541;SDS011;1785;47.388;8.538;2023-08-06T02:49:25;2.10;;;2.00;;
3541;SDS011;1785;47.388;8.538;2023-08-06T02:51:51;3.80;;;1.67;;
3541;SDS011;1785;47.388;8.538;2023-08-06T02:54:17;2.10;;;1.90;;
3541;SDS011;1785;47.388;8.538;2023-08-06T02:56:43;1.53;;;1.40;;
3541;SDS011;1785;47.388;8.538;2023-08-06T02:59:10;1.80;;;1.70;;
3541;SDS011;1785;47.388;8.538;2023-08-06T03:01:36;1.60;;;1.50;;
3541;SDS011;1785;47.388;8.538;2023-08-06T03:04:02;2.20;;;1.70;;
3541;SDS011;1785;47.388;8.538;2023-08-06T03:06:29;3.93;;;1.80;;
3541;SDS011;1785;47.388;8.538;2023-08-06T03:08:55;1.80;;;1.70;;
3541;SDS011;1785;47.388;8.538;2023-08-06T03:11:21;6.03;;;1.70;;
3541;SDS011;1785;47.388;8.538;2023-08-06T03:13:47;1.87;;;1.70;;
3541;SDS011;1785;47.388;8.538;2023-08-06T03:16:13;1.60;;;1.50;;
3541;SDS011;1785;47.388;8.538;2023-08-06T03:18:40;2.40;;;2.20;;
3541;SDS011;1785;47.388;8.538;2023-08-06T03:21:06;2.00;;;1.80;;
3541;SDS011;1785;47.388;8.538;2023-08-06T03:23:32;1.50;;;1.40;;
3541;SDS011;1785;47.388;8.538;2023-08-06T03:26:00;2.10;;;1.77;;
3541;SDS011;1785;47.388;8.538;2023-08-06T03:28:27;5.03;;;1.73;;
3541;SDS011;1785;47.388;8.538;2023-08-06T03:30:58;2.60;;;2.17;;
3541;SDS011;1785;47.388;8.538;2023-08-06T03:33:24;2.08;;;1.88;;
3541;SDS011;1785;47.388;8.538;2023-08-06T03:35:51;2.10;;;1.60;;
3541;SDS011;1785;47.388;8.538;2023-08-06T03:38:17;1.70;;;1.60;;
3541;SDS011;1785;47.388;8.538;2023-08-06T03:40:43;1.83;;;1.63;;
3541;SDS011;1785;47.388;8.538;2023-08-06T03:43:09;2.70;;;1.70;;
3541;SDS011;1785;47.388;8.538;2023-08-06T03:45:35;2.03;;;1.87;;
3541;SDS011;1785;47.388;8.538;2023-08-06T03:48:01;3.13;;;1.60;;
3541;SDS011;1785;47.388;8.538;2023-08-06T03:50:27;3.03;;;1.77;;
3541;SDS011;1785;47.388;8.538;2023-08-06T03:52:53;2.10;;;1.70;;
3541;SDS011;1785;47.388;8.538;2023-08-06T03:55:19;1.80;;;1.70;;
3541;SDS011;1785;47.388;8.538;2023-08-06T03:57:46;2.07;;;1.97;;
3541;SDS011;1785;47.388;8.538;2023-08-06T04:00:12;3.43;;;1.77;;
3541;SDS011;1785;47.388;8.538;2023-08-06T04:02:38;1.63;;;1.53;;
3541;SDS011;1785;47.388;8.538;2023-08-06T04:05:04;1.93;;;1.53;;
3541;SDS011;1785;47.388;8.538;2023-08-06T04:07:30;1.33;;;1.23;;
3541;SDS011;1785;47.388;8.538;2023-08-06T04:09:58;2.67;;;1.70;;
3541;SDS011;1785;47.388;8.538;2023-08-06T04:12:25;3.93;;;1.63;;
3541;SDS011;1785;47.388;8.538;2023-08-06T04:14:51;2.50;;;2.07;;
3541;SDS011;1785;47.388;8.538;2023-08-06T04:17:17;1.93;;;1.77;;
3541;SDS011;1785;47.388;8.538;2023-08-06T04:19:46;3.10;;;2.37;;
3541;SDS011;1785;47.388;8.538;2023-08-06T04:22:12;1.50;;;1.20;;
3541;SDS011;1785;47.388;8.538;2023-08-06T04:24:39;4.80;;;1.77;;
3541;SDS011;1785;47.388;8.538;2023-08-06T04:27:05;5.27;;;1.73;;
3541;SDS011;1785;47.388;8.538;2023-08-06T04:29:32;3.10;;;1.80;;
3541;SDS011;1785;47.388;8.538;2023-08-06T04:31:58;1.60;;;1.50;;
3541;SDS011;1785;47.388;8.538;2023-08-06T04:34:24;2.03;;;1.67;;
3541;SDS011;1785;47.388;8.538;2023-08-06T04:36:50;2.53;;;1.37;;
3541;SDS011;1785;47.388;8.538;2023-08-06T04:39:16;3.60;;;1.50;;
3541;SDS011;1785;47.388;8.538;2023-08-06T04:41:42;2.53;;;1.50;;
3541;SDS011;1785;47.388;8.538;2023-08-06T04:44:10;3.40;;;1.50;;
3541;SDS011;1785;47.388;8.538;2023-08-06T04:46:36;2.33;;;1.30;;
3541;SDS011;1785;47.388;8.538;2023-08-06T04:49:01;2.90;;;1.30;;
3541;SDS011;1785;47.388;8.538;2023-08-06T04:51:28;4.23;;;2.60;;
3541;SDS011;1785;47.388;8.538;2023-08-06T04:53:54;1.10;;;1.00;;
3541;SDS011;1785;47.388;8.538;2023-08-06T04:56:22;2.03;;;1.47;;
3541;SDS011;1785;47.388;8.538;2023-08-06T04:58:48;3.10;;;1.17;;
3541;SDS011;1785;47.388;8.538;2023-08-06T05:01:14;4.77;;;1.60;;
3541;SDS011;1785;47.388;8.538;2023-08-06T05:03:40;1.20;;;1.10;;
3541;SDS011;1785;47.388;8.538;2023-08-06T05:06:06;2.13;;;0.97;;
3541;SDS011;1785;47.388;8.538;2023-08-06T05:08:33;1.57;;;1.33;;
3541;SDS011;1785;47.388;8.538;2023-08-06T05:10:59;1.07;;;1.00;;
3541;SDS011;1785;47.388;8.538;2023-08-06T05:13:25;1.70;;;1.07;;
3541;SDS011;1785;47.388;8.538;2023-08-06T05:15:52;1.20;;;1.10;;
3541;SDS011;1785;47.388;8.538;2023-08-06T05:18:19;4.17;;;1.10;;
3541;SDS011;1785;47.388;8.538;2023-08-06T05:20:46;1.40;;;1.30;;
3541;SDS011;1785;47.388;8.538;2023-08-06T05:23:13;1.20;;;1.10;;
3541;SDS011;1785;47.388;8.538;2023-08-06T05:25:39;1.57;;;1.10;;
3541;SDS011;1785;47.388;8.538;2023-08-06T05:28:05;1.53;;;1.00;;
3541;SDS011;1785;47.388;8.538;2023-08-06T05:30:31;2.70;;;1.00;;
3541;SDS011;1785;47.388;8.538;2023-08-06T05:32:57;2.53;;;1.40;;
3541;SDS011;1785;47.388;8.538;2023-08-06T05:35:24;1.10;;;0.90;;
3541;SDS011;1785;47.388;8.538;2023-08-06T05:37:50;2.07;;;1.20;;
3541;SDS011;1785;47.388;8.538;2023-08-06T05:40:16;1.17;;;1.07;;
3541;SDS011;1785;47.388;8.538;2023-08-06T05:42:42;1.00;;;0.90;;
3541;SDS011;1785;47.388;8.538;2023-08-06T05:45:09;0.80;;;0.80;;
3541;SDS011;1785;47.388;8.538;2023-08-06T05:47:35;1.60;;;0.90;;
3541;SDS011;1785;47.388;8.538;2023-08-06T05:50:01;1.57;;;0.90;;
3541;SDS011;1785;47.388;8.538;2023-08-06T05:52:28;1.30;;;1.20;;
3541;SDS011;1785;47.388;8.538;2023-08-06T05:54:54;1.10;;;1.00;;
3541;SDS011;1785;47.388;8.538;2023-08-06T05:57:20;1.37;;;1.03;;
3541;SDS011;1785;47.388;8.538;2023-08-06T05:59:46;1.50;;;0.80;;
3541;SDS011;1785;47.388;8.538;2023-08-06T06:02:12;1.67;;;1.23;;
3541;SDS011;1785;47.388;8.538;2023-08-06T06:04:40;1.53;;;1.00;;
3541;SDS011;1785;47.388;8.538;2023-08-06T06:07:06;1.43;;;1.33;;
3541;SDS011;1785;47.388;8.538;2023-08-06T06:09:33;1.33;;;1.00;;
3541;SDS011;1785;47.388;8.538;2023-08-06T06:11:59;1.53;;;1.43;;
3541;SDS011;1785;47.388;8.538;2023-08-06T06:14:25;2.23;;;1.20;;
3541;SDS011;1785;47.388;8.538;2023-08-06T06:16:51;1.50;;;1.40;;
3541;SDS011;1785;47.388;8.538;2023-08-06T06:19:18;2.53;;;1.20;;
3541;SDS011;1785;47.388;8.538;2023-08-06T06:21:44;1.33;;;1.13;;
3541;SDS011;1785;47.388;8.538;2023-08-06T06:24:10;4.70;;;1.20;;
3541;SDS011;1785;47.388;8.538;2023-08-06T06:26:37;1.50;;;0.93;;
3541;SDS011;1785;47.388;8.538;2023-08-06T06:29:03;1.40;;;1.30;;
3541;SDS011;1785;47.388;8.538;2023-08-06T06:31:29;3.83;;;2.00;;
3541;SDS011;1785;47.388;8.538;2023-08-06T06:33:55;2.80;;;1.23;;
3541;SDS011;1785;47.388;8.538;2023-08-06T06:36:21;2.30;;;1.07;;
3541;SDS011;1785;47.388;8.538;2023-08-06T06:38:48;3.90;;;1.10;;
3541;SDS011;1785;47.388;8.538;2023-08-06T06:41:14;1.30;;;1.20;;
3541;SDS011;1785;47.388;8.538;2023-08-06T06:43:41;1.20;;;1.10;;
3541;SDS011;1785;47.388;8.538;2023-08-06T06:46:07;1.47;;;1.23;;
3541;SDS011;1785;47.388;8.538;2023-08-06T06:48:33;1.97;;;1.00;;
3541;SDS011;1785;47.388;8.538;2023-08-06T06:50:59;1.73;;;1.13;;
3541;SDS011;1785;47.388;8.538;2023-08-06T06:53:25;3.10;;;1.50;;
3541;SDS011;1785;47.388;8.538;2023-08-06T06:55:52;1.77;;;1.30;;
3541;SDS011;1785;47.388;8.538;2023-08-06T06:58:18;1.10;;;0.93;;
3541;SDS011;1785;47.388;8.538;2023-08-06T07:00:45;1.65;;;0.95;;
3541;SDS011;1785;47.388;8.538;2023-08-06T07:03:12;1.27;;;1.17;;
3541;SDS011;1785;47.388;8.538;2023-08-06T07:05:38;1.53;;;1.10;;
3541;SDS011;1785;47.388;8.538;2023-08-06T07:08:04;1.87;;;1.00;;
3541;SDS011;1785;47.388;8.538;2023-08-06T07:10:30;2.73;;;1.53;;
3541;SDS011;1785;47.388;8.538;2023-08-06T07:12:56;1.50;;;1.17;;
3541;SDS011;1785;47.388;8.538;2023-08-06T07:15:22;1.90;;;0.97;;
3541;SDS011;1785;47.388;8.538;2023-08-06T07:17:49;8.23;;;1.40;;
3541;SDS011;1785;47.388;8.538;2023-08-06T07:20:15;1.33;;;1.00;;
3541;SDS011;1785;47.388;8.538;2023-08-06T07:22:41;1.93;;;1.20;;
3541;SDS011;1785;47.388;8.538;2023-08-06T07:25:07;1.73;;;1.10;;
3541;SDS011;1785;47.388;8.538;2023-08-06T07:27:33;1.60;;;1.37;;
3541;SDS011;1785;47.388;8.538;2023-08-06T07:29:59;1.40;;;1.07;;
3541;SDS011;1785;47.388;8.538;2023-08-06T07:32:25;3.17;;;1.20;;
3541;SDS011;1785;47.388;8.538;2023-08-06T07:34:53;1.20;;;0.93;;
3541;SDS011;1785;47.388;8.538;2023-08-06T07:37:24;1.73;;;1.00;;
3541;SDS011;1785;47.388;8.538;2023-08-06T07:39:50;1.53;;;1.33;;
3541;SDS011;1785;47.388;8.538;2023-08-06T07:42:16;1.23;;;1.10;;
3541;SDS011;1785;47.388;8.538;2023-08-06T07:44:47;1.00;;;1.00;;
3541;SDS011;1785;47.388;8.538;2023-08-06T07:47:17;2.17;;;1.10;;
3541;SDS011;1785;47.388;8.538;2023-08-06T07:49:43;1.87;;;1.20;;
3541;SDS011;1785;47.388;8.538;2023-08-06T07:52:10;1.20;;;0.90;;
3541;SDS011;1785;47.388;8.538;2023-08-06T07:54:36;1.57;;;1.30;;
3541;SDS011;1785;47.388;8.538;2023-08-06T07:57:02;1.17;;;1.07;;
3541;SDS011;1785;47.388;8.538;2023-08-06T07:59:29;2.07;;;1.30;;
3541;SDS011;1785;47.388;8.538;2023-08-06T08:01:55;3.50;;;1.47;;
3541;SDS011;1785;47.388;8.538;2023-08-06T08:04:21;1.30;;;1.20;;
3541;SDS011;1785;47.388;8.538;2023-08-06T08:06:47;1.20;;;1.10;;
3541;SDS011;1785;47.388;8.538;2023-08-06T08:09:14;1.33;;;1.23;;
3541;SDS011;1785;47.388;8.538;2023-08-06T08:11:40;2.27;;;1.20;;
3541;SDS011;1785;47.388;8.538;2023-08-06T08:14:06;1.40;;;1.30;;
3541;SDS011;1785;47.388;8.538;2023-08-06T08:16:33;1.50;;;1.30;;
3541;SDS011;1785;47.388;8.538;2023-08-06T08:18:59;2.23;;;1.50;;
3541;SDS011;1785;47.388;8.538;2023-08-06T08:21:25;1.77;;;1.13;;
3541;SDS011;1785;47.388;8.538;2023-08-06T08:23:51;2.10;;;1.30;;
3541;SDS011;1785;47.388;8.538;2023-08-06T08:26:18;1.20;;;1.10;;
3541;SDS011;1785;47.388;8.538;2023-08-06T08:28:44;1.43;;;1.17;;
3541;SDS011;1785;47.388;8.538;2023-08-06T08:31:10;2.70;;;1.37;;
3541;SDS011;1785;47.388;8.538;2023-08-06T08:33:37;1.57;;;0.90;;
3541;SDS011;1785;47.388;8.538;2023-08-06T08:36:03;3.93;;;1.00;;
3541;SDS011;1785;47.388;8.538;2023-08-06T08:38:29;1.40;;;1.30;;
3541;SDS011;1785;47.388;8.538;2023-08-06T08:40:55;1.20;;;1.10;;
3541;SDS011;1785;47.388;8.538;2023-08-06T08:43:22;1.40;;;1.30;;
3541;SDS011;1785;47.388;8.538;2023-08-06T08:45:49;1.40;;;1.10;;
3541;SDS011;1785;47.388;8.538;2023-08-06T08:48:17;1.10;;;1.10;;
3541;SDS011;1785;47.388;8.538;2023-08-06T08:50:44;2.80;;;1.50;;
3541;SDS011;1785;47.388;8.538;2023-08-06T08:53:12;1.20;;;1.20;;
3541;SDS011;1785;47.388;8.538;2023-08-06T08:55:39;3.40;;;1.63;;
3541;SDS011;1785;47.388;8.538;2023-08-06T08:58:07;1.57;;;1.43;;
3541;SDS011;1785;47.388;8.538;2023-08-06T09:00:34;2.80;;;1.20;;
3541;SDS011;1785;47.388;8.538;2023-08-06T09:03:01;1.20;;;1.10;;
3541;SDS011;1785;47.388;8.538;2023-08-06T09:05:29;1.20;;;1.10;;
3541;SDS011;1785;47.388;8.538;2023-08-06T09:07:56;1.50;;;1.40;;
3541;SDS011;1785;47.388;8.538;2023-08-06T09:10:27;1.50;;;1.40;;
3541;SDS011;1785;47.388;8.538;2023-08-06T09:12:53;1.23;;;1.13;;
3541;SDS011;1785;47.388;8.538;2023-08-06T09:15:23;1.40;;;1.30;;
3541;SDS011;1785;47.388;8.538;2023-08-06T09:17:51;1.93;;;1.20;;
3541;SDS011;1785;47.388;8.538;2023-08-06T09:20:17;1.27;;;1.17;;
3541;SDS011;1785;47.388;8.538;2023-08-06T09:22:44;1.40;;;1.30;;
3541;SDS011;1785;47.388;8.538;2023-08-06T09:25:20;1.50;;;1.30;;
3541;SDS011;1785;47.388;8.538;2023-08-06T09:27:48;1.30;;;1.20;;
3541;SDS011;1785;47.388;8.538;2023-08-06T09:30:28;1.10;;;1.00;;
3541;SDS011;1785;47.388;8.538;2023-08-06T09:32:55;1.40;;;1.30;;
3541;SDS011;1785;47.388;8.538;2023-08-06T09:35:22;1.10;;;1.00;;
3541;SDS011;1785;47.388;8.538;2023-08-06T09:37:48;1.23;;;1.00;;
3541;SDS011;1785;47.388;8.538;2023-08-06T09:40:27;1.10;;;0.90;;
3541;SDS011;1785;47.388;8.538;2023-08-06T09:42:53;1.20;;;1.10;;
3541;SDS011;1785;47.388;8.538;2023-08-06T09:45:20;1.43;;;1.17;;
3541;SDS011;1785;47.388;8.538;2023-08-06T09:47:47;1.20;;;1.10;;
3541;SDS011;1785;47.388;8.538;2023-08-06T09:50:15;1.30;;;0.90;;
3541;SDS011;1785;47.388;8.538;2023-08-06T09:52:42;1.10;;;0.60;;
3541;SDS011;1785;47.388;8.538;2023-08-06T09:55:08;1.10;;;1.00;;
3541;SDS011;1785;47.388;8.538;2023-08-06T09:57:37;0.93;;;0.93;;
3541;SDS011;1785;47.388;8.538;2023-08-06T10:00:04;0.90;;;0.90;;
3541;SDS011;1785;47.388;8.538;2023-08-06T10:02:33;0.87;;;0.87;;
3541;SDS011;1785;47.388;8.538;2023-08-06T10:05:00;2.23;;;1.10;;
3541;SDS011;1785;47.388;8.538;2023-08-06T10:07:29;0.80;;;0.70;;
3541;SDS011;1785;47.388;8.538;2023-08-06T10:09:55;0.98;;;0.50;;
3541;SDS011;1785;47.388;8.538;2023-08-06T10:12:21;0.80;;;0.80;;
3541;SDS011;1785;47.388;8.538;2023-08-06T10:14:49;1.20;;;0.80;;
3541;SDS011;1785;47.388;8.538;2023-08-06T10:17:18;0.80;;;0.80;;
3541;SDS011;1785;47.388;8.538;2023-08-06T10:19:45;1.33;;;0.90;;
3541;SDS011;1785;47.388;8.538;2023-08-06T10:22:13;0.80;;;0.80;;
3541;SDS011;1785;47.388;8.538;2023-08-06T10:24:49;1.10;;;0.70;;
3541;SDS011;1785;47.388;8.538;2023-08-06T10:27:19;0.80;;;0.80;;
3541;SDS011;1785;47.388;8.538;2023-08-06T10:29:54;0.80;;;0.80;;
3541;SDS011;1785;47.388;8.538;2023-08-06T10:32:20;0.83;;;0.80;;
3541;SDS011;1785;47.388;8.538;2023-08-06T10:34:53;1.27;;;0.90;;
3541;SDS011;1785;47.388;8.538;2023-08-06T10:37:20;2.10;;;1.57;;
3541;SDS011;1785;47.388;8.538;2023-08-06T10:39:48;1.10;;;1.00;;
3541;SDS011;1785;47.388;8.538;2023-08-06T10:42:26;0.90;;;0.90;;
3541;SDS011;1785;47.388;8.538;2023-08-06T10:45:10;1.30;;;1.07;;
3541;SDS011;1785;47.388;8.538;2023-08-06T10:47:37;1.20;;;1.10;;
3541;SDS011;1785;47.388;8.538;2023-08-06T10:50:04;0.97;;;0.87;;
3541;SDS011;1785;47.388;8.538;2023-08-06T10:52:31;0.70;;;0.70;;
3541;SDS011;1785;47.388;8.538;2023-08-06T10:54:59;1.10;;;1.00;;
3541;SDS011;1785;47.388;8.538;2023-08-06T10:57:25;0.80;;;0.80;;
3541;SDS011;1785;47.388;8.538;2023-08-06T10:59:51;0.87;;;0.87;;
3541;SDS011;1785;47.388;8.538;2023-08-06T11:02:17;1.00;;;0.90;;
3541;SDS011;1785;47.388;8.538;2023-08-06T11:04:43;0.90;;;0.90;;
3541;SDS011;1785;47.388;8.538;2023-08-06T11:07:09;2.83;;;1.10;;
3541;SDS011;1785;47.388;8.538;2023-08-06T11:09:35;1.40;;;1.30;;
3541;SDS011;1785;47.388;8.538;2023-08-06T11:12:04;1.10;;;1.00;;
3541;SDS011;1785;47.388;8.538;2023-08-06T11:14:34;1.00;;;0.80;;
3541;SDS011;1785;47.388;8.538;2023-08-06T11:17:00;1.00;;;0.90;;
3541;SDS011;1785;47.388;8.538;2023-08-06T11:19:26;1.00;;;0.83;;
3541;SDS011;1785;47.388;8.538;2023-08-06T11:21:54;0.90;;;0.90;;
3541;SDS011;1785;47.388;8.538;2023-08-06T11:24:20;1.00;;;0.90;;
3541;SDS011;1785;47.388;8.538;2023-08-06T11:26:46;0.90;;;0.90;;
3541;SDS011;1785;47.388;8.538;2023-08-06T11:29:13;0.83;;;0.83;;
3541;SDS011;1785;47.388;8.538;2023-08-06T11:31:40;1.77;;;0.93;;
3541;SDS011;1785;47.388;8.538;2023-08-06T11:34:07;1.00;;;1.00;;
3541;SDS011;1785;47.388;8.538;2023-08-06T11:36:34;0.80;;;0.80;;
3541;SDS011;1785;47.388;8.538;2023-08-06T11:39:05;0.80;;;0.70;;
3541;SDS011;1785;47.388;8.538;2023-08-06T11:41:31;0.90;;;0.80;;
3541;SDS011;1785;47.388;8.538;2023-08-06T11:43:58;0.90;;;0.90;;
3541;SDS011;1785;47.388;8.538;2023-08-06T11:46:25;1.00;;;0.90;;
3541;SDS011;1785;47.388;8.538;2023-08-06T11:48:51;1.23;;;0.80;;
3541;SDS011;1785;47.388;8.538;2023-08-06T11:51:17;1.00;;;0.90;;
3541;SDS011;1785;47.388;8.538;2023-08-06T11:53:46;1.57;;;1.17;;
3541;SDS011;1785;47.388;8.538;2023-08-06T11:56:13;1.00;;;1.00;;
3541;SDS011;1785;47.388;8.538;2023-08-06T11:58:40;1.73;;;0.80;;
3541;SDS011;1785;47.388;8.538;2023-08-06T12:01:06;0.90;;;0.90;;
3541;SDS011;1785;47.388;8.538;2023-08-06T12:03:38;1.00;;;1.00;;
3541;SDS011;1785;47.388;8.538;2023-08-06T12:06:04;2.00;;;1.10;;
3541;SDS011;1785;47.388;8.538;2023-08-06T12:08:30;0.80;;;0.80;;
3541;SDS011;1785;47.388;8.538;2023-08-06T12:10:56;1.10;;;1.00;;
3541;SDS011;1785;47.388;8.538;2023-08-06T12:13:22;2.40;;;1.00;;
3541;SDS011;1785;47.388;8.538;2023-08-06T12:15:48;1.30;;;1.10;;
3541;SDS011;1785;47.388;8.538;2023-08-06T12:18:15;2.00;;;1.30;;
3541;SDS011;1785;47.388;8.538;2023-08-06T12:20:41;0.80;;;0.80;;
3541;SDS011;1785;47.388;8.538;2023-08-06T12:23:07;1.50;;;0.90;;
3541;SDS011;1785;47.388;8.538;2023-08-06T12:25:34;1.20;;;0.90;;
3541;SDS011;1785;47.388;8.538;2023-08-06T12:28:01;1.00;;;1.00;;
3541;SDS011;1785;47.388;8.538;2023-08-06T12:30:27;1.10;;;1.00;;
3541;SDS011;1785;47.388;8.538;2023-08-06T12:32:53;0.90;;;0.90;;
3541;SDS011;1785;47.388;8.538;2023-08-06T12:35:19;0.80;;;0.80;;
3541;SDS011;1785;47.388;8.538;2023-08-06T12:37:46;1.00;;;1.00;;
3541;SDS011;1785;47.388;8.538;2023-08-06T12:40:12;0.90;;;0.90;;
3541;SDS011;1785;47.388;8.538;2023-08-06T12:42:38;1.30;;;1.20;;
3541;SDS011;1785;47.388;8.538;2023-08-06T12:45:05;1.03;;;0.83;;
3541;SDS011;1785;47.388;8.538;2023-08-06T12:47:31;1.63;;;0.90;;
3541;SDS011;1785;47.388;8.538;2023-08-06T12:49:57;1.30;;;1.20;;
3541;SDS011;1785;47.388;8.538;2023-08-06T12:52:23;0.87;;;0.83;;
3541;SDS011;1785;47.388;8.538;2023-08-06T12:54:50;1.10;;;1.10;;
3541;SDS011;1785;47.388;8.538;2023-08-06T12:57:16;1.83;;;1.50;;
3541;SDS011;1785;47.388;8.538;2023-08-06T12:59:42;1.63;;;1.53;;
3541;SDS011;1785;47.388;8.538;2023-08-06T13:02:08;1.00;;;1.00;;
3541;SDS011;1785;47.388;8.538;2023-08-06T13:04:34;1.10;;;1.00;;
3541;SDS011;1785;47.388;8.538;2023-08-06T13:07:00;1.30;;;1.20;;
3541;SDS011;1785;47.388;8.538;2023-08-06T13:09:26;1.10;;;1.10;;
3541;SDS011;1785;47.388;8.538;2023-08-06T13:11:53;1.33;;;0.70;;
3541;SDS011;1785;47.388;8.538;2023-08-06T13:14:19;1.00;;;0.90;;
3541;SDS011;1785;47.388;8.538;2023-08-06T13:16:46;3.30;;;1.10;;
3541;SDS011;1785;47.388;8.538;2023-08-06T13:19:12;1.10;;;0.93;;
3541;SDS011;1785;47.388;8.538;2023-08-06T13:21:58;1.00;;;0.90;;
3541;SDS011;1785;47.388;8.538;2023-08-06T13:24:26;1.40;;;1.30;;
3541;SDS011;1785;47.388;8.538;2023-08-06T13:26:53;0.80;;;0.80;;
3541;SDS011;1785;47.388;8.538;2023-08-06T13:29:19;1.10;;;1.00;;
3541;SDS011;1785;47.388;8.538;2023-08-06T13:31:45;2.83;;;1.20;;
3541;SDS011;1785;47.388;8.538;2023-08-06T13:34:11;1.10;;;1.00;;
3541;SDS011;1785;47.388;8.538;2023-08-06T13:36:37;0.90;;;0.90;;
3541;SDS011;1785;47.388;8.538;2023-08-06T13:39:04;1.33;;;1.10;;
3541;SDS011;1785;47.388;8.538;2023-08-06T13:41:30;2.00;;;1.10;;
3541;SDS011;1785;47.388;8.538;2023-08-06T13:43:57;1.00;;;0.90;;
3541;SDS011;1785;47.388;8.538;2023-08-06T13:46:23;1.10;;;0.90;;
3541;SDS011;1785;47.388;8.538;2023-08-06T13:48:49;1.07;;;0.97;;
3541;SDS011;1785;47.388;8.538;2023-08-06T13:51:16;1.30;;;1.20;;
3541;SDS011;1785;47.388;8.538;2023-08-06T13:53:42;0.93;;;0.93;;
3541;SDS011;1785;47.388;8.538;2023-08-06T13:56:08;0.90;;;0.90;;
3541;SDS011;1785;47.388;8.538;2023-08-06T13:58:35;1.10;;;1.00;;
3541;SDS011;1785;47.388;8.538;2023-08-06T14:01:02;1.03;;;0.93;;
3541;SDS011;1785;47.388;8.538;2023-08-06T14:03:28;1.47;;;1.13;;
3541;SDS011;1785;47.388;8.538;2023-08-06T14:05:54;0.87;;;0.87;;
3541;SDS011;1785;47.388;8.538;2023-08-06T14:08:21;1.13;;;1.13;;
3541;SDS011;1785;47.388;8.538;2023-08-06T14:10:48;0.80;;;0.80;;
3541;SDS011;1785;47.388;8.538;2023-08-06T14:13:14;0.90;;;0.90;;
3541;SDS011;1785;47.388;8.538;2023-08-06T14:15:40;0.90;;;0.90;;
3541;SDS011;1785;47.388;8.538;2023-08-06T14:18:07;1.23;;;1.13;;
3541;SDS011;1785;47.388;8.538;2023-08-06T14:20:33;1.17;;;1.00;;
3541;SDS011;1785;47.388;8.538;2023-08-06T14:22:59;1.00;;;0.90;;
3541;SDS011;1785;47.388;8.538;2023-08-06T14:25:26;1.20;;;1.10;;
3541;SDS011;1785;47.388;8.538;2023-08-06T14:27:52;1.20;;;1.00;;
3541;SDS011;1785;47.388;8.538;2023-08-06T14:30:18;1.37;;;1.07;;
3541;SDS011;1785;47.388;8.538;2023-08-06T14:32:44;1.33;;;1.23;;
3541;SDS011;1785;47.388;8.538;2023-08-06T14:35:11;1.20;;;1.10;;
3541;SDS011;1785;47.388;8.538;2023-08-06T14:37:37;1.20;;;1.10;;
3541;SDS011;1785;47.388;8.538;2023-08-06T14:40:06;1.43;;;1.33;;
3541;SDS011;1785;47.388;8.538;2023-08-06T14:42:33;0.80;;;0.60;;
3541;SDS011;1785;47.388;8.538;2023-08-06T14:44:59;2.00;;;1.30;;
3541;SDS011;1785;47.388;8.538;2023-08-06T14:47:25;1.40;;;1.30;;
3541;SDS011;1785;47.388;8.538;2023-08-06T14:49:51;1.97;;;1.40;;
3541;SDS011;1785;47.388;8.538;2023-08-06T14:52:17;1.50;;;1.40;;
3541;SDS011;1785;47.388;8.538;2023-08-06T14:54:44;1.50;;;1.40;;
3541;SDS011;1785;47.388;8.538;2023-08-06T14:57:10;2.57;;;2.40;;
3541;SDS011;1785;47.388;8.538;2023-08-06T14:59:37;2.10;;;1.93;;
3541;SDS011;1785;47.388;8.538;2023-08-06T15:02:04;1.90;;;1.80;;
3541;SDS011;1785;47.388;8.538;2023-08-06T15:04:30;3.20;;;1.70;;
3541;SDS011;1785;47.388;8.538;2023-08-06T15:06:56;1.70;;;1.60;;
3541;SDS011;1785;47.388;8.538;2023-08-06T15:09:23;1.73;;;1.63;;
3541;SDS011;1785;47.388;8.538;2023-08-06T15:11:49;1.30;;;1.03;;